Flag for USA

Past Weather in 35°12'07"N, 89°48'42"W, USA — Yesterday and Last 2 Weeks

Currently: 39 °F. Passing clouds. (Weather station: Memphis International Airport, USA). See more current weather

Past Weather in 35°12'07"N, 89°48'42"W — Graph

°F

35°12'07"N, 89°48'42"W Temperature Yesterday

Maximum temperature yesterday: 53 °F (at 2:54 pm)
Minimum temperature yesterday: 44 °F (at 4:54 am)
Average temperature yesterday: 47 °F

High & Low Weather Summary for the Past Weeks

 TemperatureHumidityPressure
High57 °F (Jan 18, 1:54 pm)97% (Jan 21, 2:54 am)30.42 "Hg (Jan 21, 2:54 am)
Low22 °F (Jan 12, 4:54 am)28% (Jan 18, 2:54 pm)29.69 "Hg (Jan 15, 12:54 pm)
Average41 °F66%30.12 "Hg
* Reported Jan 7 9:54 pm — Jan 22 9:54 pm, 35°12'07"N, 89°48'42"W. Weather by CustomWeather, © 2021

Note: Actual official high and low records may vary slightly from our data, if they occured in-between our weather recording intervals... More about our weather records

35°12'07"N, 89°48'42"W Weather History for the Previous 24 Hours

Scroll right to see more
 ConditionsComfort  
Time TempWeatherWind HumidityBarometerVisibility
9:54 pm
Fri, Jan 22
40 °FPassing clouds.12 mph51%30.19 "Hg10 mi
8:54 pm41 °FPassing clouds.10 mph51%30.17 "Hg10 mi
7:54 pm43 °FPassing clouds.12 mph51%30.17 "Hg10 mi
6:54 pm44 °FPassing clouds.9 mph51%30.15 "Hg10 mi
5:54 pm46 °FClear.10 mph48%30.13 "Hg10 mi
4:54 pm50 °FClear.10 mph41%30.10 "Hg10 mi
3:54 pm52 °FSunny.9 mph43%30.09 "Hg10 mi
2:54 pm53 °FSunny.13 mph43%30.08 "Hg10 mi
1:54 pm52 °FSunny.12 mph43%30.08 "Hg10 mi
12:58 pm51 °FPassing clouds.12 mph46%30.08 "Hg10 mi
11:54 am49 °FPassing clouds.12 mph50%30.09 "Hg10 mi
10:54 am47 °FScattered clouds.10 mph56%30.11 "Hg10 mi
9:54 am44 °FBroken clouds.12 mph68%30.11 "Hg10 mi
8:54 am43 °FBroken clouds.14 mph86%30.07 "Hg9 mi
8:29 am43 °FMore clouds than sun.10 mph89%30.07 "Hg8 mi
7:54 am44 °FOvercast.8 mph85%30.05 "Hg9 mi
6:54 am42 °FPartly sunny.5 mph89%30.03 "Hg10 mi
5:54 am43 °FPassing clouds.5 mph86%29.97 "Hg10 mi
4:54 am44 °FMostly cloudy.3 mph89%29.97 "Hg10 mi
3:54 am47 °FOvercast.3 mph83%29.96 "Hg10 mi
2:54 am45 °FMostly cloudy.No wind86%29.96 "Hg10 mi
1:54 am45 °FMostly cloudy.5 mph86%29.97 "Hg10 mi
12:54 am46 °FOvercast.3 mph83%29.96 "Hg10 mi
11:54 pm
Thu, Jan 21
46 °FOvercast.3 mph86%29.96 "Hg10 mi
Weather by CustomWeather, © 2021

See weather overview